sensor_id;sensor_type;location;lat;lon;timestamp;temperature;humidity
51739;DHT22;37815;52.692;6.226;2022-07-23T00:00:54;19.70;90.20
51739;DHT22;37815;52.692;6.226;2022-07-23T00:05:55;19.70;89.90
51739;DHT22;37815;52.692;6.226;2022-07-23T00:10:55;19.70;90.00
51739;DHT22;37815;52.692;6.226;2022-07-23T00:15:56;19.70;90.00
51739;DHT22;37815;52.692;6.226;2022-07-23T00:20:57;19.70;90.00
51739;DHT22;37815;52.692;6.226;2022-07-23T00:25:58;19.70;90.00
51739;DHT22;37815;52.692;6.226;2022-07-23T00:30:58;19.60;90.00
51739;DHT22;37815;52.692;6.226;2022-07-23T00:35:59;19.60;90.00
51739;DHT22;37815;52.692;6.226;2022-07-23T00:41:00;19.60;90.00
51739;DHT22;37815;52.692;6.226;2022-07-23T00:46:00;19.50;89.90
51739;DHT22;37815;52.692;6.226;2022-07-23T00:51:01;19.50;90.00
51739;DHT22;37815;52.692;6.226;2022-07-23T00:56:02;19.50;89.90
51739;DHT22;37815;52.692;6.226;2022-07-23T01:01:03;19.50;89.90
51739;DHT22;37815;52.692;6.226;2022-07-23T01:06:03;19.50;90.00
51739;DHT22;37815;52.692;6.226;2022-07-23T01:11:04;19.40;89.90
51739;DHT22;37815;52.692;6.226;2022-07-23T01:16:06;19.40;89.90
51739;DHT22;37815;52.692;6.226;2022-07-23T01:21:07;19.40;90.00
51739;DHT22;37815;52.692;6.226;2022-07-23T01:26:09;19.40;89.90
51739;DHT22;37815;52.692;6.226;2022-07-23T01:31:10;19.40;89.90
51739;DHT22;37815;52.692;6.226;2022-07-23T01:36:11;19.30;89.90
51739;DHT22;37815;52.692;6.226;2022-07-23T01:41:11;19.30;89.90
51739;DHT22;37815;52.692;6.226;2022-07-23T01:46:12;19.30;89.90
51739;DHT22;37815;52.692;6.226;2022-07-23T01:51:13;19.30;89.90
51739;DHT22;37815;52.692;6.226;2022-07-23T01:56:14;19.30;89.90
51739;DHT22;37815;52.692;6.226;2022-07-23T02:01:15;19.20;89.80
51739;DHT22;37815;52.692;6.226;2022-07-23T02:06:16;19.20;89.70
51739;DHT22;37815;52.692;6.226;2022-07-23T02:11:16;19.20;89.70
51739;DHT22;37815;52.692;6.226;2022-07-23T02:16:17;19.20;89.70
51739;DHT22;37815;52.692;6.226;2022-07-23T02:21:18;19.20;89.70
51739;DHT22;37815;52.692;6.226;2022-07-23T02:26:18;19.10;89.60
51739;DHT22;37815;52.692;6.226;2022-07-23T02:31:20;19.10;89.70
51739;DHT22;37815;52.692;6.226;2022-07-23T02:36:21;19.10;89.60
51739;DHT22;37815;52.692;6.226;2022-07-23T02:41:21;19.10;89.70
51739;DHT22;37815;52.692;6.226;2022-07-23T02:46:22;19.10;89.70
51739;DHT22;37815;52.692;6.226;2022-07-23T02:51:23;19.00;89.60
51739;DHT22;37815;52.692;6.226;2022-07-23T02:56:23;19.00;89.60
51739;DHT22;37815;52.692;6.226;2022-07-23T03:01:24;19.00;89.60
51739;DHT22;37815;52.692;6.226;2022-07-23T03:06:25;19.00;89.60
51739;DHT22;37815;52.692;6.226;2022-07-23T03:11:26;19.00;89.60
51739;DHT22;37815;52.692;6.226;2022-07-23T03:16:26;18.90;89.50
51739;DHT22;37815;52.692;6.226;2022-07-23T03:21:27;18.90;89.50
51739;DHT22;37815;52.692;6.226;2022-07-23T03:26:28;18.90;89.50
51739;DHT22;37815;52.692;6.226;2022-07-23T03:31:29;18.90;89.50
51739;DHT22;37815;52.692;6.226;2022-07-23T03:36:31;18.80;89.40
51739;DHT22;37815;52.692;6.226;2022-07-23T03:41:32;18.80;89.50
51739;DHT22;37815;52.692;6.226;2022-07-23T03:46:33;18.80;89.40
51739;DHT22;37815;52.692;6.226;2022-07-23T03:51:34;18.80;89.40
51739;DHT22;37815;52.692;6.226;2022-07-23T03:56:35;18.80;89.40
51739;DHT22;37815;52.692;6.226;2022-07-23T04:01:36;18.80;89.40
51739;DHT22;37815;52.692;6.226;2022-07-23T04:06:37;18.70;89.30
51739;DHT22;37815;52.692;6.226;2022-07-23T04:11:37;18.70;89.30
51739;DHT22;37815;52.692;6.226;2022-07-23T04:47:40;18.40;89.00
51739;DHT22;37815;52.692;6.226;2022-07-23T04:52:41;18.60;89.00
51739;DHT22;37815;52.692;6.226;2022-07-23T04:57:41;18.60;89.10
51739;DHT22;37815;52.692;6.226;2022-07-23T05:02:43;18.60;89.10
51739;DHT22;37815;52.692;6.226;2022-07-23T05:07:43;18.60;89.10
51739;DHT22;37815;52.692;6.226;2022-07-23T05:12:44;18.60;89.00
51739;DHT22;37815;52.692;6.226;2022-07-23T05:17:45;18.60;89.10
51739;DHT22;37815;52.692;6.226;2022-07-23T05:22:46;18.60;89.10
51739;DHT22;37815;52.692;6.226;2022-07-23T05:27:46;18.60;89.00
51739;DHT22;37815;52.692;6.226;2022-07-23T05:32:47;18.60;89.00
51739;DHT22;37815;52.692;6.226;2022-07-23T05:37:48;18.60;89.10
51739;DHT22;37815;52.692;6.226;2022-07-23T05:42:49;18.60;89.00
51739;DHT22;37815;52.692;6.226;2022-07-23T05:47:50;18.60;89.00
51739;DHT22;37815;52.692;6.226;2022-07-23T05:52:51;18.60;89.00
51739;DHT22;37815;52.692;6.226;2022-07-23T05:57:51;18.60;89.00
51739;DHT22;37815;52.692;6.226;2022-07-23T06:02:52;18.60;89.00
51739;DHT22;37815;52.692;6.226;2022-07-23T06:07:56;18.60;89.00
51739;DHT22;37815;52.692;6.226;2022-07-23T06:12:56;18.60;89.00
51739;DHT22;37815;52.692;6.226;2022-07-23T06:38:38;18.70;88.90
51739;DHT22;37815;52.692;6.226;2022-07-23T06:43:39;18.70;89.00
51739;DHT22;37815;52.692;6.226;2022-07-23T06:48:40;18.70;88.90
51739;DHT22;37815;52.692;6.226;2022-07-23T06:53:40;18.70;88.90
51739;DHT22;37815;52.692;6.226;2022-07-23T06:58:41;18.80;88.80
51739;DHT22;37815;52.692;6.226;2022-07-23T07:03:42;18.70;88.70
51739;DHT22;37815;52.692;6.226;2022-07-23T07:08:43;18.80;88.80
51739;DHT22;37815;52.692;6.226;2022-07-23T07:13:44;18.80;88.80
51739;DHT22;37815;52.692;6.226;2022-07-23T07:18:45;18.80;88.70
51739;DHT22;37815;52.692;6.226;2022-07-23T07:23:45;18.80;88.60
51739;DHT22;37815;52.692;6.226;2022-07-23T07:28:46;18.90;88.60
51739;DHT22;37815;52.692;6.226;2022-07-23T07:33:47;18.90;88.60
51739;DHT22;37815;52.692;6.226;2022-07-23T07:38:48;18.90;88.50
51739;DHT22;37815;52.692;6.226;2022-07-23T07:43:51;18.90;88.40
51739;DHT22;37815;52.692;6.226;2022-07-23T07:48:52;19.00;88.40
51739;DHT22;37815;52.692;6.226;2022-07-23T07:53:53;19.00;88.30
51739;DHT22;37815;52.692;6.226;2022-07-23T07:58:54;19.00;88.10
51739;DHT22;37815;52.692;6.226;2022-07-23T08:03:54;19.10;88.10
51739;DHT22;37815;52.692;6.226;2022-07-23T08:08:55;19.10;88.00
51739;DHT22;37815;52.692;6.226;2022-07-23T08:13:56;19.20;88.00
51739;DHT22;37815;52.692;6.226;2022-07-23T08:18:57;19.20;87.90
51739;DHT22;37815;52.692;6.226;2022-07-23T08:23:57;19.20;87.90
51739;DHT22;37815;52.692;6.226;2022-07-23T08:28:58;19.30;87.90
51739;DHT22;37815;52.692;6.226;2022-07-23T08:34:02;19.30;87.70
51739;DHT22;37815;52.692;6.226;2022-07-23T08:39:03;19.30;87.70
51739;DHT22;37815;52.692;6.226;2022-07-23T08:44:07;19.30;87.60
51739;DHT22;37815;52.692;6.226;2022-07-23T08:49:08;19.40;87.80
51739;DHT22;37815;52.692;6.226;2022-07-23T08:54:09;19.40;87.70
51739;DHT22;37815;52.692;6.226;2022-07-23T08:59:10;19.50;88.00
51739;DHT22;37815;52.692;6.226;2022-07-23T09:04:13;19.30;87.40
51739;DHT22;37815;52.692;6.226;2022-07-23T09:09:19;19.40;87.00
51739;DHT22;37815;52.692;6.226;2022-07-23T09:14:42;19.20;87.30
51739;DHT22;37815;52.692;6.226;2022-07-23T09:19:47;19.10;87.10
51739;DHT22;37815;52.692;6.226;2022-07-23T09:30:08;19.00;84.10
51739;DHT22;37815;52.692;6.226;2022-07-23T09:35:09;19.20;85.60
51739;DHT22;37815;52.692;6.226;2022-07-23T09:40:10;19.40;84.80
51739;DHT22;37815;52.692;6.226;2022-07-23T09:45:13;19.40;85.20
51739;DHT22;37815;52.692;6.226;2022-07-23T09:50:14;19.30;85.40
51739;DHT22;37815;52.692;6.226;2022-07-23T11:24:53;20.40;82.90
51739;DHT22;37815;52.692;6.226;2022-07-23T11:40:17;20.30;83.00
51739;DHT22;37815;52.692;6.226;2022-07-23T11:45:18;20.80;82.80
51739;DHT22;37815;52.692;6.226;2022-07-23T11:50:23;21.00;82.40
51739;DHT22;37815;52.692;6.226;2022-07-23T11:55:24;21.20;82.10
51739;DHT22;37815;52.692;6.226;2022-07-23T12:00:28;21.40;81.70
51739;DHT22;37815;52.692;6.226;2022-07-23T12:05:32;21.60;81.40
51739;DHT22;37815;52.692;6.226;2022-07-23T12:15:38;21.70;80.60
51739;DHT22;37815;52.692;6.226;2022-07-23T12:20:42;21.80;81.30
51739;DHT22;37815;52.692;6.226;2022-07-23T12:25:44;21.90;81.30
51739;DHT22;37815;52.692;6.226;2022-07-23T12:30:53;22.10;80.90
51739;DHT22;37815;52.692;6.226;2022-07-23T12:35:56;22.20;80.50
51739;DHT22;37815;52.692;6.226;2022-07-23T12:40:58;22.30;80.80
51739;DHT22;37815;52.692;6.226;2022-07-23T12:46:07;22.50;81.00
51739;DHT22;37815;52.692;6.226;2022-07-23T12:51:19;22.10;80.90
51739;DHT22;37815;52.692;6.226;2022-07-23T12:56:31;22.40;81.50
51739;DHT22;37815;52.692;6.226;2022-07-23T13:01:35;21.80;81.80
51739;DHT22;37815;52.692;6.226;2022-07-23T13:06:42;21.80;82.00
51739;DHT22;37815;52.692;6.226;2022-07-23T13:11:45;21.80;82.00
51739;DHT22;37815;52.692;6.226;2022-07-23T13:16:49;22.20;81.60
51739;DHT22;37815;52.692;6.226;2022-07-23T13:21:51;22.60;81.00
51739;DHT22;37815;52.692;6.226;2022-07-23T13:26:51;22.80;80.10
51739;DHT22;37815;52.692;6.226;2022-07-23T13:31:52;23.00;79.80
51739;DHT22;37815;52.692;6.226;2022-07-23T13:36:53;23.30;79.50
51739;DHT22;37815;52.692;6.226;2022-07-23T13:41:54;23.50;78.50
51739;DHT22;37815;52.692;6.226;2022-07-23T13:46:54;23.70;78.00
51739;DHT22;37815;52.692;6.226;2022-07-23T13:51:55;23.70;78.00
51739;DHT22;37815;52.692;6.226;2022-07-23T13:56:57;23.50;78.00
51739;DHT22;37815;52.692;6.226;2022-07-23T14:01:58;23.80;78.10
51739;DHT22;37815;52.692;6.226;2022-07-23T14:06:59;24.00;77.80
51739;DHT22;37815;52.692;6.226;2022-07-23T14:17:11;24.00;77.40
51739;DHT22;37815;52.692;6.226;2022-07-23T14:22:12;24.00;77.50
51739;DHT22;37815;52.692;6.226;2022-07-23T14:27:12;24.00;77.20
51739;DHT22;37815;52.692;6.226;2022-07-23T14:32:13;23.90;77.60
51739;DHT22;37815;52.692;6.226;2022-07-23T14:37:14;23.70;78.10
51739;DHT22;37815;52.692;6.226;2022-07-23T14:42:15;23.90;77.90
51739;DHT22;37815;52.692;6.226;2022-07-23T14:47:16;24.20;77.60
51739;DHT22;37815;52.692;6.226;2022-07-23T14:52:17;24.10;76.30
51739;DHT22;37815;52.692;6.226;2022-07-23T14:57:17;24.40;76.20
51739;DHT22;37815;52.692;6.226;2022-07-23T15:23:55;24.00;77.30
51739;DHT22;37815;52.692;6.226;2022-07-23T15:28:59;24.20;76.70
51739;DHT22;37815;52.692;6.226;2022-07-23T15:33:59;23.90;77.40
51739;DHT22;37815;52.692;6.226;2022-07-23T15:39:00;23.70;78.00
51739;DHT22;37815;52.692;6.226;2022-07-23T15:44:01;23.50;78.40
51739;DHT22;37815;52.692;6.226;2022-07-23T15:49:02;23.30;78.90
51739;DHT22;37815;52.692;6.226;2022-07-23T15:54:03;23.40;78.90
51739;DHT22;37815;52.692;6.226;2022-07-23T15:59:04;23.50;78.30
51739;DHT22;37815;52.692;6.226;2022-07-23T16:04:05;23.50;77.90
51739;DHT22;37815;52.692;6.226;2022-07-23T16:09:06;23.40;78.30
51739;DHT22;37815;52.692;6.226;2022-07-23T16:14:06;23.30;78.30
51739;DHT22;37815;52.692;6.226;2022-07-23T16:19:08;23.10;78.60
51739;DHT22;37815;52.692;6.226;2022-07-23T16:24:08;23.00;78.70
51739;DHT22;37815;52.692;6.226;2022-07-23T16:29:12;22.90;79.40
51739;DHT22;37815;52.692;6.226;2022-07-23T16:34:13;22.80;79.60
51739;DHT22;37815;52.692;6.226;2022-07-23T16:39:14;22.80;79.60
51739;DHT22;37815;52.692;6.226;2022-07-23T16:44:15;22.70;79.50
51739;DHT22;37815;52.692;6.226;2022-07-23T16:49:15;22.70;79.40
51739;DHT22;37815;52.692;6.226;2022-07-23T16:54:16;22.60;79.90
51739;DHT22;37815;52.692;6.226;2022-07-23T16:59:17;22.60;80.40
51739;DHT22;37815;52.692;6.226;2022-07-23T17:04:18;22.60;80.30
51739;DHT22;37815;52.692;6.226;2022-07-23T17:09:19;22.60;80.40
51739;DHT22;37815;52.692;6.226;2022-07-23T17:14:20;22.60;80.40
51739;DHT22;37815;52.692;6.226;2022-07-23T17:19:20;22.60;81.00
51739;DHT22;37815;52.692;6.226;2022-07-23T17:24:21;22.60;80.30
51739;DHT22;37815;52.692;6.226;2022-07-23T17:29:22;22.60;80.20
51739;DHT22;37815;52.692;6.226;2022-07-23T17:34:23;22.60;80.00
51739;DHT22;37815;52.692;6.226;2022-07-23T17:39:23;22.60;79.90
51739;DHT22;37815;52.692;6.226;2022-07-23T17:44:24;22.60;80.20
51739;DHT22;37815;52.692;6.226;2022-07-23T17:49:25;22.60;80.60
51739;DHT22;37815;52.692;6.226;2022-07-23T17:54:26;22.60;80.70
51739;DHT22;37815;52.692;6.226;2022-07-23T17:59:27;22.50;81.00
51739;DHT22;37815;52.692;6.226;2022-07-23T18:04:28;22.40;81.30
51739;DHT22;37815;52.692;6.226;2022-07-23T18:09:28;22.40;81.40
51739;DHT22;37815;52.692;6.226;2022-07-23T18:14:29;22.20;81.20
51739;DHT22;37815;52.692;6.226;2022-07-23T18:19:30;22.20;81.20
51739;DHT22;37815;52.692;6.226;2022-07-23T18:24:30;22.10;81.40
51739;DHT22;37815;52.692;6.226;2022-07-23T18:29:31;22.10;81.80
51739;DHT22;37815;52.692;6.226;2022-07-23T18:34:32;22.10;81.80
51739;DHT22;37815;52.692;6.226;2022-07-23T19:46:47;21.40;86.20
51739;DHT22;37815;52.692;6.226;2022-07-23T19:51:48;21.60;86.10
51739;DHT22;37815;52.692;6.226;2022-07-23T19:56:49;21.70;86.00
51739;DHT22;37815;52.692;6.226;2022-07-23T20:01:50;21.70;85.90
51739;DHT22;37815;52.692;6.226;2022-07-23T20:06:51;21.80;85.90
51739;DHT22;37815;52.692;6.226;2022-07-23T20:11:51;21.80;85.90
51739;DHT22;37815;52.692;6.226;2022-07-23T20:16:52;21.80;85.80
51739;DHT22;37815;52.692;6.226;2022-07-23T20:21:53;21.80;85.80
51739;DHT22;37815;52.692;6.226;2022-07-23T20:26:54;21.80;85.90
51739;DHT22;37815;52.692;6.226;2022-07-23T20:31:55;21.80;85.90
51739;DHT22;37815;52.692;6.226;2022-07-23T20:36:55;21.80;85.90
51739;DHT22;37815;52.692;6.226;2022-07-23T20:41:56;21.80;85.90
51739;DHT22;37815;52.692;6.226;2022-07-23T20:46:57;21.80;86.00
51739;DHT22;37815;52.692;6.226;2022-07-23T20:51:58;21.70;86.00
51739;DHT22;37815;52.692;6.226;2022-07-23T20:56:58;21.70;86.70
51739;DHT22;37815;52.692;6.226;2022-07-23T21:01:59;21.70;86.10
51739;DHT22;37815;52.692;6.226;2022-07-23T21:07:00;21.70;86.20
51739;DHT22;37815;52.692;6.226;2022-07-23T21:12:00;21.70;86.30
51739;DHT22;37815;52.692;6.226;2022-07-23T21:17:01;21.60;86.30
51739;DHT22;37815;52.692;6.226;2022-07-23T21:22:02;21.60;86.30
51739;DHT22;37815;52.692;6.226;2022-07-23T21:27:03;21.60;86.40
51739;DHT22;37815;52.692;6.226;2022-07-23T21:32:04;21.60;86.50
51739;DHT22;37815;52.692;6.226;2022-07-23T21:37:05;21.60;86.50
51739;DHT22;37815;52.692;6.226;2022-07-23T21:42:06;21.50;86.60
51739;DHT22;37815;52.692;6.226;2022-07-23T21:47:07;21.50;86.70
51739;DHT22;37815;52.692;6.226;2022-07-23T21:52:08;21.50;86.70
51739;DHT22;37815;52.692;6.226;2022-07-23T21:57:09;21.50;86.70
51739;DHT22;37815;52.692;6.226;2022-07-23T22:02:10;21.40;86.70
51739;DHT22;37815;52.692;6.226;2022-07-23T22:07:11;21.40;86.80
51739;DHT22;37815;52.692;6.226;2022-07-23T22:12:14;21.40;86.80
51739;DHT22;37815;52.692;6.226;2022-07-23T22:17:15;21.40;86.90
51739;DHT22;37815;52.692;6.226;2022-07-23T22:22:15;21.40;86.90
51739;DHT22;37815;52.692;6.226;2022-07-23T22:27:16;21.30;86.90
51739;DHT22;37815;52.692;6.226;2022-07-23T22:32:17;21.30;86.90
51739;DHT22;37815;52.692;6.226;2022-07-23T22:37:17;21.30;87.00
51739;DHT22;37815;52.692;6.226;2022-07-23T22:42:18;21.30;87.00
51739;DHT22;37815;52.692;6.226;2022-07-23T22:47:19;21.20;87.00
51739;DHT22;37815;52.692;6.226;2022-07-23T22:52:20;21.20;87.10
51739;DHT22;37815;52.692;6.226;2022-07-23T22:57:21;21.20;87.10
51739;DHT22;37815;52.692;6.226;2022-07-23T23:02:22;21.20;87.10
51739;DHT22;37815;52.692;6.226;2022-07-23T23:07:23;21.20;87.10
51739;DHT22;37815;52.692;6.226;2022-07-23T23:12:23;21.10;87.00
51739;DHT22;37815;52.692;6.226;2022-07-23T23:17:24;21.10;87.00
51739;DHT22;37815;52.692;6.226;2022-07-23T23:22:25;21.10;87.10
51739;DHT22;37815;52.692;6.226;2022-07-23T23:27:26;21.10;87.10
51739;DHT22;37815;52.692;6.226;2022-07-23T23:32:26;21.00;87.00
51739;DHT22;37815;52.692;6.226;2022-07-23T23:37:27;21.00;87.00
51739;DHT22;37815;52.692;6.226;2022-07-23T23:42:28;21.00;87.00
51739;DHT22;37815;52.692;6.226;2022-07-23T23:47:28;21.00;87.00
51739;DHT22;37815;52.692;6.226;2022-07-23T23:52:29;21.00;87.00
51739;DHT22;37815;52.692;6.226;2022-07-23T23:57:30;21.00;87.00
